Flight Track Log - Related Links

Times and Time Zones

All times are in EST time to prevent confusion due to time zone crossing. See the AFL150 flight status page for this flight to view local times or setup timezone preferences in your user account.


Time Position Orientation Groundspeed Altitude Reporting Facility
EST Latitude Longitude Course Direction KTS MPH feet Rate Location/Type
Mon 08:18:00 AM 56.0415 37.0890 307° West  Level Estimated
Mon 08:19:00 AM 56.1128 36.9162 307° West  Level Estimated
Mon 08:20:00 AM 56.1839 36.7428 306° West  Level Estimated
Mon 08:21:00 AM 56.2547 36.5687 306° West  Level Estimated
Mon 08:22:00 AM 56.3253 36.3940 306° West  Level Estimated
Mon 08:23:00 AM 56.3957 36.2186 306° West  Level Estimated
Mon 08:24:00 AM 56.4658 36.0425 306° West  Level Estimated
Mon 08:25:00 AM 56.5356 35.8659 306° West  Level Estimated
Mon 08:26:00 AM 56.6052 35.6885 306° West  Level Estimated
Mon 08:27:00 AM 56.6745 35.5106 305° West  Level Estimated
Mon 08:28:00 AM 56.7436 35.3319 305° West  Level Estimated
Mon 08:29:00 AM 56.8125 35.1526 305° West  Level Estimated
Mon 08:30:00 AM 56.8810 34.9727 305° West  Level Estimated
Mon 08:31:00 AM 56.9494 34.7920 305° West  Level Estimated
Mon 08:32:00 AM 57.0174 34.6108 305° West  Level Estimated
Mon 08:33:00 AM 57.0852 34.4288 304° West  Level Estimated
Mon 08:34:00 AM 57.1527 34.2462 304° West  Level Estimated
Mon 08:35:00 AM 57.2200 34.0630 304° West  Level Estimated
Mon 08:36:00 AM 57.2870 33.8790 304° West  Level Estimated
Mon 08:37:00 AM 57.3537 33.6944 304° West  Level Estimated
Mon 08:38:00 AM 57.4202 33.5091 304° West  Level Estimated
Mon 08:39:00 AM 57.4863 33.3232 304° West  Level Estimated
Mon 08:40:00 AM 57.5522 33.1365 303° West  Level Estimated
Mon 08:41:00 AM 57.6179 32.9492 303° West  Level Estimated
Mon 08:42:00 AM 57.6832 32.7613 303° West  Level Estimated
Mon 08:43:00 AM 57.7483 32.5726 303° West  Level Estimated
Mon 08:44:00 AM 57.8131 32.3833 303° West  Level Estimated
Mon 08:44:41 AM 56.5016 31.7408 303° West 464 534 34,000  Level FlightAware ADS-B
Mon 08:46:42 AM 56.5413 31.2751 279° West 464 534 34,000  Level FlightAware ADS-B
Mon 08:47:41 AM 56.5834 31.0606 290° West 461 531 34,000  Level FlightAware ADS-B
Mon 08:48:43 AM 56.6502 30.8608 301° West 457 526 34,000  Level FlightAware ADS-B
Mon 08:49:47 AM 56.7276 30.6900 310° West 457 526 34,000  Level FlightAware ADS-B
Mon 08:50:42 AM 56.7965 30.5082 305° West 457 526 34,000  Level FlightAware ADS-B
Mon 08:51:42 AM 56.8722 30.3058 304° West 455 524 34,000  Level FlightAware ADS-B
Mon 08:52:47 AM 56.9478 30.0993 304° West 455 524 34,000  Level FlightAware ADS-B
Mon 08:53:47 AM 57.0161 29.9117 304° West 452 520 34,000  Level FlightAware ADS-B
Mon 08:54:47 AM 57.0873 29.7143 304° West 453 521 34,000  Level FlightAware ADS-B
Mon 08:55:57 AM 57.1669 29.4918 303° West 456 525 34,000  Level FlightAware ADS-B
Mon 08:56:57 AM 57.2351 29.2995 303° West 455 524 34,000  Level FlightAware ADS-B
Mon 08:57:55 AM 57.3025 29.1082 303° West 453 521 34,000  Level FlightAware ADS-B
Mon 08:58:56 AM 57.3717 28.9101 303° West 453 521 34,000  Level FlightAware ADS-B
Mon 08:59:59 AM 57.4417 28.7083 303° West 452 520 34,000  Level FlightAware ADS-B
Mon 09:01:03 AM 57.5143 28.4972 303° West 453 521 34,000  Level FlightAware ADS-B
Mon 09:02:02 AM 57.5803 28.3032 302° West 452 520 34,000  Level FlightAware ADS-B
Mon 09:03:04 AM 57.6498 28.0980 302° West 449 517 34,000  Level FlightAware ADS-B
Mon 09:04:00 AM 57.7107 27.9171 302° West 449 517 34,000  Level FlightAware ADS-B
Mon 09:05:06 AM 57.7830 27.6992 302° West 447 514 34,000  Level FlightAware ADS-B
Mon 09:06:15 AM 57.8501 27.4678 299° West 446 513 34,000  Level FlightAware ADS-B
Mon 09:07:14 AM 57.8926 27.2548 291° West 450 518 34,000  Level FlightAware ADS-B
Mon 09:08:14 AM 57.9365 27.0357 291° West 448 516 34,000  Level FlightAware ADS-B
Mon 09:09:14 AM 57.9801 26.8171 291° West 447 514 34,000  Level FlightAware ADS-B
Mon 09:10:14 AM 58.0238 26.5966 291° West 445 512 34,000  Level FlightAware ADS-B
Mon 09:11:15 AM 58.0664 26.3775 290° West 444 511 34,000  Level FlightAware ADS-B
Mon 09:12:14 AM 58.1072 26.1658 290° West 444 511 34,000  Level FlightAware ADS-B
Mon 09:13:14 AM 58.1495 25.9436 290° West 443 510 34,000  Level FlightAware ADS-B
Mon 09:14:14 AM 58.1909 25.7245 290° West 445 512 34,000  Level FlightAware ADS-B
Mon 09:15:14 AM 58.2314 25.5061 289° West 445 512 34,000  Level FlightAware ADS-B
Mon 09:16:13 AM 58.2698 25.2967 289° West 443 510 34,000  Level FlightAware ADS-B
Mon 09:17:14 AM 58.3124 25.0646 289° West 443 510 34,000  Level FlightAware ADS-B
Mon 09:18:08 AM 58.3479 24.8666 289° West 443 510 34,000  Level FlightAware ADS-B
Mon 09:18:59 AM 58.3644 24.7738 289° West 443 510 34,000  Level FlightAware ADS-B
Mon 09:32:45 AM 58.8268 21.5656 294° West 441 507 34,000  Level FlightAware ADS-B (KNHK)
Mon 09:33:31 AM 58.8438 21.4334 284° West 441 507 34,000  Level FlightAware ADS-B (KNHK)
Mon 09:34:10 AM 58.8680 21.2410 284° West 439 505 34,000  Level FlightAware ADS-B (KNHK)
Mon 09:34:51 AM 58.8877 21.0838 284° West 439 505 34,000  Level FlightAware ADS-B (KNHK)
Mon 09:35:47 AM 58.9211 20.8740 287° West 441 507 34,000  Level FlightAware ADS-B (KNHK)
Mon 09:36:47 AM 58.9655 20.6572 292° West 438 504 34,000  Level FlightAware ADS-B (KNHK)
Mon 09:37:28 AM 58.9911 20.5033 288° West 438 504 34,000  Level FlightAware ADS-B (KNHK)
Mon 09:38:09 AM 59.0162 20.3505 288° West 439 505 34,000  Level FlightAware ADS-B (KNHK)
Mon 09:38:48 AM 59.0397 20.2051 288° West 440 506 34,000  Level FlightAware ADS-B (KNHK)
Mon 09:39:29 AM 59.0648 20.0499 288° West 439 505 34,000  Level FlightAware ADS-B (KNHK)
Mon 09:40:10 AM 59.0891 19.8981 287° West 438 504 34,000  Level FlightAware ADS-B (KNHK)
Mon 09:40:52 AM 59.1126 19.7491 287° West 436 502 34,000  Level FlightAware ADS-B (KNHK)
Mon 09:41:32 AM 59.1370 19.5935 287° West 436 502 34,000  Level FlightAware ADS-B (KNHK)
Mon 09:42:12 AM 59.1605 19.4419 287° West 435 501 34,000  Level FlightAware ADS-B (KNHK)
Mon 09:42:51 AM 59.1826 19.2992 287° West 434 499 34,000  Level FlightAware ADS-B (KNHK)
Mon 09:43:32 AM 59.2066 19.1429 287° West 434 499 34,000  Level FlightAware ADS-B (KNHK)
Mon 09:44:11 AM 59.2290 18.9950 287° West 435 501 34,000  Level FlightAware ADS-B (KNHK)
Mon 09:44:51 AM 59.2513 18.8465 286° West 432 497 34,000  Level FlightAware ADS-B (KNHK)
Mon 09:45:31 AM 59.2730 18.7000 286° West 431 496 34,000  Level FlightAware ADS-B (KNHK)
Mon 09:46:11 AM 59.2954 18.5485 286° West 430 495 34,000  Level FlightAware ADS-B (KNHK)
Mon 09:46:51 AM 59.3146 18.4167 286° West 427 491 34,000  Level FlightAware ADS-B (KNHK)
Mon 09:47:32 AM 59.3387 18.2502 286° West 425 489 34,000  Level FlightAware ADS-B (KNHK)
Mon 09:48:13 AM 59.3600 18.1022 286° West 425 489 34,000  Level FlightAware ADS-B (KNHK)
Mon 09:48:53 AM 59.3815 17.9509 286° West 425 489 34,000  Level FlightAware ADS-B (KNHK)
Mon 09:49:32 AM 59.4018 17.8065 286° West 424 488 34,000  Level FlightAware ADS-B (KNHK)
Mon 09:50:12 AM 59.4229 17.6547 285° West 425 489 34,000  Level FlightAware ADS-B (KNHK)
Mon 09:50:52 AM 59.4431 17.5091 285° West 424 488 34,000  Level FlightAware ADS-B (KNHK)
Mon 09:51:32 AM 59.4628 17.3655 285° West 422 486 34,000  Level FlightAware ADS-B (KNHK)
Mon 09:52:10 AM 59.4824 17.2223 285° West 421 484 34,000  Level FlightAware ADS-B (KNHK)
Mon 09:52:53 AM 59.5038 17.0633 285° West 421 484 34,000  Level FlightAware ADS-B (KNHK)
Mon 09:53:32 AM 59.5232 16.9162 285° West 424 488 34,000  Level FlightAware ADS-B (KNHK)
Mon 09:54:12 AM 59.5423 16.7712 285° West 423 487 34,000  Level FlightAware ADS-B (KNHK)
Mon 09:54:51 AM 59.5605 16.6319 285° West 422 486 34,000  Level FlightAware ADS-B (KNHK)
Mon 09:55:34 AM 59.5821 16.4649 284° West 421 484 34,000  Level FlightAware ADS-B (KNHK)
Mon 09:56:13 AM 59.6001 16.3242 284° West 420 483 34,000  Level FlightAware ADS-B (KNHK)
Mon 09:56:43 AM 59.6157 16.2015 284° West 421 484 34,000  Level FlightAware ADS-B
Mon 09:57:14 AM 59.6283 16.1014 284° West 421 484 34,000  Level FlightAware ADS-B (KNHK)
Mon 09:57:45 AM 59.6449 15.9679 284° West 421 484 34,000  Level FlightAware ADS-B
Mon 09:58:26 AM 59.6638 15.8157 284° West 419 482 34,000  Level FlightAware ADS-B
Mon 09:59:01 AM 59.6798 15.6851 284° West 419 482 34,000  Level FlightAware ADS-B
Mon 09:59:31 AM 59.6936 15.5708 284° West 420 483 34,000  Level FlightAware ADS-B
Mon 10:00:02 AM 59.7073 15.4589 284° West 422 486 34,000  Level FlightAware ADS-B
Mon 10:00:33 AM 59.7260 15.3441 288° West 422 486 34,000  Level FlightAware ADS-B
Mon 10:01:03 AM 59.7448 15.2346 289° West 423 487 34,000  Level FlightAware ADS-B
Mon 10:01:33 AM 59.7626 15.1254 288° West 422 486 34,000  Level FlightAware ADS-B
Mon 10:02:04 AM 59.7814 15.0075 288° West 418 481 34,000  Level FlightAware ADS-B
Mon 10:02:35 AM 59.7990 14.8966 287° West 418 481 34,000  Level FlightAware ADS-B
Mon 10:03:08 AM 59.8180 14.7741 287° West 419 482 34,000  Level FlightAware ADS-B
Mon 10:03:39 AM 59.8359 14.6595 287° West 418 481 34,000  Level FlightAware ADS-B
Mon 10:04:09 AM 59.8529 14.5497 287° West 416 479 34,000  Level FlightAware ADS-B
Mon 10:04:39 AM 59.8697 14.4406 287° West 414 476 34,000  Level FlightAware ADS-B
Mon 10:05:10 AM 59.8864 14.3306 287° West 413 475 34,000  Level FlightAware ADS-B
Mon 10:05:53 AM 59.9108 14.1700 287° West 412 474 34,000  Level FlightAware ADS-B
Mon 10:06:24 AM 59.9274 14.0594 287° West 413 475 34,000  Level FlightAware ADS-B
Mon 10:06:54 AM 59.9441 13.9476 287° West 414 476 34,000  Level FlightAware ADS-B
Mon 10:07:24 AM 59.9606 13.8367 287° West 415 478 34,000  Level FlightAware ADS-B
Mon 10:07:54 AM 59.9765 13.7292 286° West 414 476 34,000  Level FlightAware ADS-B
Mon 10:08:26 AM 59.9932 13.6149 286° West 412 474 34,000  Level FlightAware ADS-B
Mon 10:08:56 AM 60.0094 13.5029 286° West 413 475 34,000  Level FlightAware ADS-B
Mon 10:09:35 AM 60.0298 13.3615 286° West 413 475 34,000  Level FlightAware ADS-B
Mon 10:10:07 AM 60.0469 13.2424 286° West 412 474 34,000  Level FlightAware ADS-B
Mon 10:10:43 AM 60.0658 13.1091 286° West 412 474 34,000  Level FlightAware ADS-B
Mon 10:11:15 AM 60.0822 12.9922 286° West 412 474 34,000  Level FlightAware ADS-B
Mon 10:11:46 AM 60.0977 12.8816 286° West 410 472 34,000  Level FlightAware ADS-B
Mon 10:12:29 AM 60.1195 12.7244 286° West 408 470 34,000  Level FlightAware ADS-B
Mon 10:13:00 AM 60.1354 12.6089 285° West 409 471 34,000  Level FlightAware ADS-B
Mon 10:13:30 AM 60.1503 12.4994 285° West 409 471 34,000  Level FlightAware ADS-B
Mon 10:14:00 AM 60.1652 12.3896 285° West 409 471 34,000  Level FlightAware ADS-B
Mon 10:14:31 AM 60.1797 12.2818 285° West 410 472 34,000  Level FlightAware ADS-B
Mon 10:15:15 AM 60.2019 12.1163 285° West 410 472 34,000  Level FlightAware ADS-B
Mon 10:15:46 AM 60.2173 11.9992 285° West 409 471 34,000  Level FlightAware ADS-B
Mon 10:16:21 AM 60.2342 11.8703 285° West 410 472 34,000  Level FlightAware ADS-B
Mon 10:16:51 AM 60.2485 11.7609 285° West 409 471 34,000  Level FlightAware ADS-B
Mon 10:17:22 AM 60.2634 11.6453 285° West 409 471 34,000  Level FlightAware ADS-B
Mon 10:19:17 AM 60.3166 11.2261 285° West 411 473 34,000 Level FlightAware ADS-B
Mon 10:21:00 AM 60.3689 10.8236 285° West  Level Estimated
Mon 10:22:00 AM 60.3988 10.5886 285° West  Level Estimated
Mon 10:23:00 AM 60.4283 10.3531 284° West  Level Estimated
Mon 10:24:00 AM 60.4573 10.1172 284° West  Level Estimated
Mon 10:25:00 AM 60.4860 9.8808 284° West  Level Estimated
Mon 10:26:00 AM 60.5142 9.6441 284° West  Level Estimated
Mon 10:27:00 AM 60.5420 9.4069 284° West  Level Estimated
Mon 10:28:00 AM 60.5694 9.1693 283° West  Level Estimated
Mon 10:29:00 AM 60.5963 8.9314 283° West  Level Estimated
Mon 10:30:00 AM 60.6229 8.6930 283° West  Level Estimated
Mon 10:31:00 AM 60.6490 8.4543 283° West  Level Estimated
Mon 10:32:00 AM 60.6746 8.2151 282° West  Level Estimated
Mon 10:33:00 AM 60.6999 7.9756 282° West  Level Estimated
Mon 10:34:00 AM 60.7247 7.7357 282° West  Level Estimated
Mon 10:35:00 AM 60.7491 7.4955 282° West  Level Estimated
Mon 10:36:00 AM 60.7731 7.2548 282° West  Level Estimated
Mon 10:37:00 AM 60.7966 7.0139 281° West  Level Estimated
Mon 10:38:00 AM 60.8198 6.7726 281° West  Level Estimated
Mon 10:39:00 AM 60.8424 6.5309 281° West  Level Estimated
Mon 10:40:00 AM 60.8647 6.2889 281° West  Level Estimated
Mon 10:41:00 AM 60.8865 6.0465 281° West  Level Estimated
Mon 10:42:00 AM 60.9078 5.8039 280° West  Level Estimated
Mon 10:43:00 AM 60.9288 5.5609 280° West  Level Estimated
Mon 10:44:00 AM 60.9493 5.3176 280° West  Level Estimated
Mon 10:45:00 AM 60.9693 5.0739 280° West  Level Estimated
Mon 10:46:00 AM 60.9889 4.8300 280° West  Level Estimated
Mon 10:47:00 AM 61.0081 4.5858 279° West  Level Estimated
Mon 10:48:00 AM 61.0268 4.3413 279° West  Level Estimated
Mon 10:49:00 AM 61.0451 4.0965 279° West  Level Estimated
Mon 10:50:00 AM 61.0630 3.8514 279° West  Level Estimated
Mon 10:51:00 AM 61.0803 3.6061 278° West  Level Estimated
Mon 10:52:00 AM 61.0973 3.3605 278° West  Level Estimated
Mon 10:53:00 AM 61.1138 3.1146 278° West  Level Estimated
Mon 10:54:00 AM 61.1299 2.8684 278° West  Level Estimated
Mon 10:55:00 AM 61.1455 2.6221 278° West  Level Estimated
Mon 10:56:00 AM 61.1606 2.3754 277° West  Level Estimated
Mon 10:57:00 AM 61.1754 2.1286 277° West  Level Estimated
Mon 10:58:00 AM 61.1896 1.8815 277° West  Level Estimated
Mon 10:59:00 AM 61.2034 1.6342 277° West  Level Estimated
Mon 11:00:00 AM 61.2168 1.3867 277° West  Level Estimated
Mon 11:01:00 AM 61.2297 1.1390 276° West  Level Estimated
Mon 11:02:00 AM 61.2422 0.8911 276° West  Level Estimated
Mon 11:03:00 AM 61.2542 0.6429 276° West  Level Estimated
Mon 11:04:00 AM 61.2657 0.3947 276° West  Level Estimated
Mon 11:05:00 AM 61.2768 0.1462 275° West  Level Estimated
Mon 11:06:00 AM 61.2875 -0.1025 275° West  Level Estimated
Mon 11:07:00 AM 61.2977 -0.3513 275° West  Level Estimated
Mon 11:08:00 AM 61.3074 -0.6003 275° West  Level Estimated
Mon 11:09:00 AM 61.3167 -0.8494 275° West  Level Estimated
Mon 11:10:00 AM 61.3255 -1.0987 274° West  Level Estimated
Mon 11:11:00 AM 61.3339 -1.3481 274° West  Level Estimated
Mon 11:12:00 AM 61.3418 -1.5976 274° West  Level Estimated
Mon 11:13:00 AM 61.3493 -1.8472 274° West  Level Estimated
Mon 11:14:00 AM 61.3562 -2.0970 273° West  Level Estimated
Mon 11:15:00 AM 61.3628 -2.3469 273° West  Level Estimated
Mon 11:16:00 AM 61.3689 -2.5969 273° West  Level Estimated
Mon 11:17:00 AM 61.3745 -2.8470 273° West  Level Estimated
Mon 11:18:00 AM 61.3796 -3.0971 273° West  Level Estimated
Mon 11:19:00 AM 61.3843 -3.3473 272° West  Level Estimated
Mon 11:20:00 AM 61.3886 -3.5977 272° West  Level Estimated
Mon 11:21:00 AM 61.3924 -3.8480 272° West  Level Estimated
Mon 11:22:00 AM 61.3957 -4.0985 272° West  Level Estimated
Mon 11:23:00 AM 61.3985 -4.3489 271° West  Level Estimated
Mon 11:24:00 AM 61.4009 -4.5995 271° West  Level Estimated
Mon 11:25:00 AM 61.4029 -4.8500 271° West  Level Estimated
Mon 11:26:00 AM 61.4044 -5.1006 271° West  Level Estimated
Mon 11:27:00 AM 61.4054 -5.3512 271° West  Level Estimated
Mon 11:28:00 AM 61.4059 -5.6019 270° West  Level Estimated
Mon 11:29:00 AM 61.4060 -5.8525 270° West  Level Estimated
Mon 11:30:00 AM 61.4057 -6.1031 270° West  Level Estimated
Mon 11:31:00 AM 61.4049 -6.3537 270° West  Level Estimated
Mon 11:32:00 AM 61.4036 -6.6043 269° West  Level Estimated
Mon 11:33:00 AM 61.4018 -6.8549 269° West  Level Estimated
Mon 11:34:00 AM 61.3996 -7.1054 269° West  Level Estimated
Mon 11:35:00 AM 61.3969 -7.3559 269° West  Level Estimated
Mon 11:36:00 AM 61.3938 -7.6064 269° West  Level Estimated
Mon 11:37:00 AM 61.3902 -7.8568 268° West  Level Estimated
Mon 11:38:00 AM 61.3862 -8.1071 268° West  Level Estimated
Mon 11:39:00 AM 61.3817 -8.3574 268° West  Level Estimated
Mon 11:40:00 AM 61.3767 -8.6076 268° West  Level Estimated
Mon 11:41:00 AM 61.3713 -8.8577 268° West  Level Estimated
Mon 11:42:00 AM 61.3654 -9.1077 267° West  Level Estimated
Mon 11:43:00 AM 61.3590 -9.3576 267° West  Level Estimated
Mon 11:44:00 AM 61.3522 -9.6074 267° West  Level Estimated
Mon 11:45:00 AM 61.3450 -9.8571 267° West  Level Estimated
Mon 11:46:00 AM 61.3373 -10.1067 266° West  Level Estimated
Mon 11:47:00 AM 61.3291 -10.3562 266° West  Level Estimated
Mon 11:48:00 AM 61.3205 -10.6055 266° West  Level Estimated
Mon 11:49:00 AM 61.3114 -10.8547 266° West  Level Estimated
Mon 11:50:00 AM 61.3018 -11.1038 266° West  Level Estimated
Mon 11:51:00 AM 61.2918 -11.3526 265° West  Level Estimated
Mon 11:52:00 AM 61.2814 -11.6013 265° West  Level Estimated
Mon 11:53:00 AM 61.2705 -11.8499 265° West  Level Estimated
Mon 11:54:00 AM 61.2591 -12.0983 265° West  Level Estimated
Mon 11:55:00 AM 61.2473 -12.3465 264° West  Level Estimated
Mon 11:56:00 AM 61.2350 -12.5945 264° West  Level Estimated
Mon 11:57:00 AM 61.2223 -12.8423 264° West  Level Estimated
Mon 11:58:00 AM 61.2091 -13.0899 264° West  Level Estimated
Mon 11:59:00 AM 61.1955 -13.3372 264° West  Level Estimated
Mon 12:00:00 PM 61.1814 -13.5844 263° West  Level Estimated
Mon 12:01:00 PM 61.1669 -13.8314 263° West  Level Estimated
Mon 12:02:00 PM 61.1519 -14.0781 263° West  Level Estimated
Mon 12:03:00 PM 61.1365 -14.3246 263° West  Level Estimated
Mon 12:04:00 PM 61.1206 -14.5708 263° West  Level Estimated
Mon 12:05:00 PM 61.1043 -14.8168 262° West  Level Estimated
Mon 12:06:00 PM 61.0875 -15.0625 262° West  Level Estimated
Mon 12:07:00 PM 61.0703 -15.3080 262° West  Level Estimated
Mon 12:08:00 PM 61.0527 -15.5532 262° West  Level Estimated
Mon 12:09:00 PM 61.0345 -15.7981 261° West  Level Estimated
Mon 12:10:00 PM 61.0160 -16.0427 261° West  Level Estimated
Mon 12:11:00 PM 60.9970 -16.2871 261° West  Level Estimated
Mon 12:12:00 PM 60.9776 -16.5311 261° West  Level Estimated
Mon 12:13:00 PM 60.9577 -16.7749 261° West  Level Estimated
Mon 12:14:00 PM 60.9374 -17.0183 260° West  Level Estimated
Mon 12:15:00 PM 60.9167 -17.2614 260° West  Level Estimated
Mon 12:16:00 PM 60.8955 -17.5043 260° West  Level Estimated
Mon 12:17:00 PM 60.8739 -17.7467 260° West  Level Estimated
Mon 12:18:00 PM 60.8518 -17.9889 260° West  Level Estimated
Mon 12:19:00 PM 60.8293 -18.2307 259° West  Level Estimated
Mon 12:20:00 PM 60.8064 -18.4722 259° West  Level Estimated
Mon 12:21:00 PM 60.7830 -18.7133 259° West  Level Estimated
Mon 12:22:00 PM 60.7592 -18.9541 259° West  Level Estimated
Mon 12:23:00 PM 60.7350 -19.1945 258° West  Level Estimated
Mon 12:24:00 PM 60.7104 -19.4345 258° West  Level Estimated
Mon 12:25:00 PM 60.6853 -19.6742 258° West  Level Estimated
Mon 12:26:00 PM 60.6598 -19.9135 258° West  Level Estimated
Mon 12:27:00 PM 60.6339 -20.1524 258° West  Level Estimated
Mon 12:28:00 PM 60.6075 -20.3909 257° West  Level Estimated
Mon 12:29:00 PM 60.5807 -20.6290 257° West  Level Estimated
Mon 12:30:00 PM 60.5535 -20.8668 257° West  Level Estimated
Mon 12:31:00 PM 60.5259 -21.1041 257° West  Level Estimated
Mon 12:32:00 PM 60.4979 -21.3410 257° West  Level Estimated
Mon 12:33:00 PM 60.4694 -21.5775 256° West  Level Estimated
Mon 12:34:00 PM 60.4405 -21.8136 256° West  Level Estimated
Mon 12:35:00 PM 60.4112 -22.0493 256° West  Level Estimated
Mon 12:36:00 PM 60.3815 -22.2845 256° West  Level Estimated
Mon 12:37:00 PM 60.3514 -22.5193 256° West  Level Estimated
Mon 12:38:00 PM 60.3208 -22.7537 255° West  Level Estimated
Mon 12:39:00 PM 60.2899 -22.9877 255° West  Level Estimated
Mon 12:40:00 PM 60.2585 -23.2211 255° West  Level Estimated
Mon 12:41:00 PM 60.2268 -23.4542 255° West  Level Estimated
Mon 12:42:00 PM 60.1946 -23.6868 255° West  Level Estimated
Mon 12:43:00 PM 60.1620 -23.9189 254° West  Level Estimated
Mon 12:44:00 PM 60.1290 -24.1506 254° West  Level Estimated
Mon 12:45:00 PM 60.0956 -24.3818 254° West  Level Estimated
Mon 12:46:00 PM 60.0618 -24.6125 254° West  Level Estimated
Mon 12:47:00 PM 60.0276 -24.8428 254° West  Level Estimated
Mon 12:48:00 PM 59.9930 -25.0725 253° West  Level Estimated
Mon 12:49:00 PM 59.9580 -25.3018 253° West  Level Estimated
Mon 12:50:00 PM 59.9226 -25.5306 253° West  Level Estimated
Mon 12:51:00 PM 59.8868 -25.7589 253° West  Level Estimated
Mon 12:52:00 PM 59.8507 -25.9867 253° West  Level Estimated
Mon 12:53:00 PM 59.8141 -26.2141 252° West  Level Estimated
Mon 12:54:00 PM 59.7771 -26.4409 252° West  Level Estimated
Mon 12:55:00 PM 59.7397 -26.6672 252° West  Level Estimated
Mon 12:56:00 PM 59.7020 -26.8930 252° West  Level Estimated
Mon 12:57:00 PM 59.6639 -27.1183 252° West  Level Estimated
Mon 12:58:00 PM 59.6254 -27.3431 251° West  Level Estimated
Mon 12:59:00 PM 59.5865 -27.5674 251° West  Level Estimated
Mon 01:00:00 PM 59.5472 -27.7911 251° West  Level Estimated
Mon 01:01:00 PM 59.5075 -28.0143 251° West  Level Estimated
Mon 01:02:00 PM 59.4675 -28.2370 251° West  Level Estimated
Mon 01:03:00 PM 59.4271 -28.4592 250° West  Level Estimated
Mon 01:04:00 PM 59.3863 -28.6808 250° West  Level Estimated
Mon 01:05:00 PM 59.3451 -28.9019 250° West  Level Estimated
Mon 01:06:00 PM 59.3036 -29.1225 250° West  Level Estimated
Mon 01:07:00 PM 59.2616 -29.3425 250° West  Level Estimated
Mon 01:08:00 PM 59.2193 -29.5620 249° West  Level Estimated
Mon 01:09:00 PM 59.1767 -29.7809 249° West  Level Estimated
Mon 01:10:00 PM 59.1337 -29.9993 249° West  Level Estimated
Mon 01:11:00 PM 59.0903 -30.2171 249° West  Level Estimated
Mon 01:12:00 PM 59.0465 -30.4344 249° West  Level Estimated
Mon 01:13:00 PM 59.0024 -30.6511 249° West  Level Estimated
Mon 01:14:00 PM 58.9579 -30.8673 248° West  Level Estimated
Mon 01:15:00 PM 58.9131 -31.0829 248° West  Level Estimated
Mon 01:16:00 PM 58.8679 -31.2980 248° West  Level Estimated
Mon 01:17:00 PM 58.8224 -31.5124 248° West  Level Estimated
Mon 01:18:00 PM 58.7765 -31.7264 248° West  Level Estimated
Mon 01:19:00 PM 58.7302 -31.9397 247° West  Level Estimated
Mon 01:20:00 PM 58.6836 -32.1525 247° West  Level Estimated
Mon 01:21:00 PM 58.6366 -32.3647 247° West  Level Estimated
Mon 01:22:00 PM 58.5893 -32.5763 247° West  Level Estimated
Mon 01:23:00 PM 58.5417 -32.7874 247° West  Level Estimated
Mon 01:24:00 PM 58.4937 -32.9979 247° West  Level Estimated
Mon 01:25:00 PM 58.4453 -33.2078 246° West  Level Estimated
Mon 01:26:00 PM 58.3966 -33.4172 246° West  Level Estimated
Mon 01:27:00 PM 58.3476 -33.6259 246° West  Level Estimated
Mon 01:28:00 PM 58.2983 -33.8341 246° West  Level Estimated
Mon 01:29:00 PM 58.2486 -34.0417 246° West  Level Estimated
Mon 01:30:00 PM 58.1985 -34.2487 245° Southwest  Level Estimated
Mon 01:31:00 PM 58.1482 -34.4551 245° Southwest  Level Estimated
Mon 01:32:00 PM 58.0975 -34.6610 245° Southwest  Level Estimated
Mon 01:33:00 PM 58.0464 -34.8662 245° Southwest  Level Estimated
Mon 01:34:00 PM 57.9951 -35.0709 245° Southwest  Level Estimated
Mon 01:35:00 PM 57.9434 -35.2750 245° Southwest  Level Estimated
Mon 01:36:00 PM 57.8914 -35.4785 244° Southwest  Level Estimated
Mon 01:37:00 PM 57.8390 -35.6814 244° Southwest  Level Estimated
Mon 01:38:00 PM 57.7864 -35.8837 244° Southwest  Level Estimated
Mon 01:39:00 PM 57.7334 -36.0854 244° Southwest  Level Estimated
Mon 01:40:00 PM 57.6801 -36.2865 244° Southwest  Level Estimated
Mon 01:41:00 PM 57.6264 -36.4871 244° Southwest  Level Estimated
Mon 01:42:00 PM 57.5725 -36.6870 243° Southwest  Level Estimated
Mon 01:43:00 PM 57.5183 -36.8864 243° Southwest  Level Estimated
Mon 01:44:00 PM 57.4637 -37.0851 243° Southwest  Level Estimated
Mon 01:45:00 PM 57.4088 -37.2833 243° Southwest  Level Estimated
Mon 01:46:00 PM 57.3536 -37.4809 243° Southwest  Level Estimated
Mon 01:47:00 PM 57.2981 -37.6778 243° Southwest  Level Estimated
Mon 01:48:00 PM 57.2423 -37.8742 242° Southwest  Level Estimated
Mon 01:49:00 PM 57.1862 -38.0700 242° Southwest  Level Estimated
Mon 01:50:00 PM 57.1298 -38.2652 242° Southwest  Level Estimated
Mon 01:51:00 PM 57.0731 -38.4598 242° Southwest  Level Estimated
Mon 01:52:00 PM 57.0161 -38.6538 242° Southwest  Level Estimated
Mon 01:53:00 PM 56.9587 -38.8472 242° Southwest  Level Estimated
Mon 01:54:00 PM 56.9011 -39.0400 241° Southwest  Level Estimated
Mon 01:55:00 PM 56.8432 -39.2322 241° Southwest  Level Estimated
Mon 01:56:00 PM 56.7850 -39.4238 241° Southwest  Level Estimated
Mon 01:57:00 PM 56.7265 -39.6148 241° Southwest  Level Estimated
Mon 01:58:00 PM 56.6677 -39.8052 241° Southwest  Level Estimated
Mon 01:59:00 PM 56.6087 -39.9951 241° Southwest  Level Estimated
Mon 02:00:00 PM 56.5493 -40.1843 240° Southwest  Level Estimated
Mon 02:01:00 PM 56.4896 -40.3729 240° Southwest  Level Estimated
Mon 02:02:00 PM 56.4297 -40.5610 240° Southwest  Level Estimated
Mon 02:03:00 PM 56.3695 -40.7484 240° Southwest  Level Estimated
Mon 02:04:00 PM 56.3090 -40.9353 240° Southwest  Level Estimated
Mon 02:05:00 PM 56.2482 -41.1216 240° Southwest  Level Estimated
Mon 02:06:00 PM 56.1871 -41.3073 239° Southwest  Level Estimated
Mon 02:07:00 PM 56.1258 -41.4923 239° Southwest  Level Estimated
Mon 02:08:00 PM 56.0642 -41.6768 239° Southwest  Level Estimated
Mon 02:09:00 PM 56.0023 -41.8607 239° Southwest  Level Estimated
Mon 02:10:00 PM 55.9401 -42.0440 239° Southwest  Level Estimated
Mon 02:11:00 PM 55.8777 -42.2268 239° Southwest  Level Estimated
Mon 02:12:00 PM 55.8150 -42.4089 239° Southwest  Level Estimated
Mon 02:13:00 PM 55.7520 -42.5905 238° Southwest  Level Estimated
Mon 02:14:00 PM 55.6888 -42.7714 238° Southwest  Level Estimated
Mon 02:15:00 PM 55.6253 -42.9518 238° Southwest  Level Estimated
Mon 02:16:00 PM 55.5615 -43.1316 238° Southwest  Level Estimated
Mon 02:17:00 PM 55.4975 -43.3108 238° Southwest  Level Estimated
Mon 02:18:00 PM 55.4332 -43.4894 238° Southwest  Level Estimated
Mon 02:19:00 PM 55.3687 -43.6675 238° Southwest  Level Estimated
Mon 02:20:00 PM 55.3038 -43.8450 237° Southwest  Level Estimated
Mon 02:21:00 PM 55.2388 -44.0218 237° Southwest  Level Estimated
Mon 02:22:00 PM 55.1735 -44.1982 237° Southwest  Level Estimated
Mon 02:23:00 PM 55.1079 -44.3739 237° Southwest  Level Estimated
Mon 02:24:00 PM 55.0421 -44.5490 237° Southwest  Level Estimated
Mon 02:25:00 PM 54.9760 -44.7236 237° Southwest  Level Estimated
Mon 02:26:00 PM 54.9097 -44.8976 237° Southwest  Level Estimated
Mon 02:27:00 PM 54.8431 -45.0710 236° Southwest  Level Estimated
Mon 02:28:00 PM 54.7763 -45.2439 236° Southwest  Level Estimated
Mon 02:29:00 PM 54.7092 -45.4162 236° Southwest  Level Estimated
Mon 02:30:00 PM 54.6419 -45.5879 236° Southwest  Level Estimated
Mon 02:31:00 PM 54.5744 -45.7590 236° Southwest  Level Estimated
Mon 02:32:00 PM 54.5066 -45.9296 236° Southwest  Level Estimated
Mon 02:33:00 PM 54.4386 -46.0996 236° Southwest  Level Estimated
Mon 02:34:00 PM 54.3703 -46.2691 235° Southwest  Level Estimated
Mon 02:35:00 PM 54.3018 -46.4379 235° Southwest  Level Estimated
Mon 02:36:00 PM 54.2331 -46.6063 235° Southwest  Level Estimated
Mon 02:37:00 PM 54.1641 -46.7740 235° Southwest  Level Estimated
Mon 02:38:00 PM 54.0949 -46.9412 235° Southwest  Level Estimated
Mon 02:38:26 PM 63.1667 -54.8667 234° Southwest 220 253 36,000  Level Gander Center
Mon 02:39:00 PM 54.0255 -47.1078 235° Southwest  Level Estimated
Mon 02:39:26 PM 63.1167 -55.0833 243° Southwest 400 460 36,000  Level Gander Center
Mon 02:40:00 PM 53.9558 -47.2739 235° Southwest  Level Estimated
Mon 02:40:26 PM 63.0667 -55.3167 245° Southwest 420 483 36,000  Level Gander Center
Mon 02:41:00 PM 53.8857 -47.4400 234° Southwest  Level Estimated
Mon 02:41:26 PM 63.0333 -55.5500 253° West 430 495 36,000  Level Gander Center
Mon 02:42:00 PM 53.8330 -47.5639 234° Southwest  Level Estimated
Mon 02:42:26 PM 62.9667 -55.8167 241° Southwest 420 483 36,000  Level Gander Center
Mon 02:43:00 PM 53.7803 -47.6875 234° Southwest  Level Estimated
Mon 02:43:26 PM 62.9333 -56.0333 251° West 430 495 36,000  Level Gander Center
Mon 02:44:26 PM 62.8833 -56.2667 245° Southwest 420 483 36,000  Level Gander Center
Mon 02:46:26 PM 62.7833 -56.7167 244° Southwest 430 495 36,000  Level Gander Center
Mon 02:47:26 PM 62.7333 -56.9833 248° West 430 495 36,000  Level Gander Center
Mon 02:48:26 PM 62.6667 -57.2000 236° Southwest 430 495 36,000  Level Gander Center
Mon 02:49:26 PM 62.6167 -57.4333 245° Southwest 420 483 36,000  Level Gander Center
Mon 02:50:26 PM 62.5667 -57.6500 243° Southwest 420 483 36,000  Level Gander Center
Mon 02:51:26 PM 62.5167 -57.8667 244° Southwest 430 495 36,000  Level Gander Center
Mon 02:52:18 PM 62.4667 -58.0000 231° Southwest 430 495 36,000  Level Montreal Center
Mon 02:53:18 PM 62.4167 -58.2167 244° Southwest 420 483 36,000  Level Montreal Center
Mon 02:54:18 PM 62.3667 -58.4333 244° Southwest 430 495 36,000  Level Montreal Center
Mon 02:55:18 PM 62.3167 -58.6833 247° West 420 483 36,000  Level Montreal Center
Mon 02:56:18 PM 62.2667 -58.9000 244° Southwest 420 483 36,000  Level Montreal Center
Mon 02:57:18 PM 62.2000 -59.1167 237° Southwest 420 483 36,000  Level Montreal Center
Mon 02:58:18 PM 62.1500 -59.3333 244° Southwest 420 483 36,000  Level Montreal Center
Mon 02:59:18 PM 62.1000 -59.5833 247° West 430 495 36,000  Level Montreal Center
Mon 03:00:18 PM 62.0333 -59.8000 237° Southwest 420 483 36,000  Level Montreal Center
Mon 03:01:18 PM 61.9500 -59.9833 226° Southwest 430 495 36,000  Level Montreal Center
Mon 03:02:18 PM 61.8833 -60.1667 232° Southwest 430 495 36,000  Level Montreal Center
Mon 03:03:18 PM 61.7833 -60.3167 215° Southwest 430 495 36,000  Level Montreal Center
Mon 03:04:18 PM 61.7000 -60.5167 229° Southwest 430 495 36,000  Level Montreal Center
Mon 03:05:18 PM 61.6000 -60.6667 216° Southwest 440 506 36,000  Level Montreal Center
Mon 03:06:18 PM 61.5167 -60.8167 221° Southwest 430 495 36,000  Level Montreal Center
Mon 03:07:18 PM 61.4167 -61.0000 221° Southwest 450 518 36,000  Level Montreal Center
Mon 03:08:18 PM 61.3333 -61.1500 221° Southwest 430 495 36,000  Level Montreal Center
Mon 03:09:18 PM 61.2333 -61.3500 224° Southwest 430 495 36,000  Level Montreal Center
Mon 03:10:18 PM 61.1500 -61.4833 218° Southwest 430 495 36,000  Level Montreal Center
Mon 03:11:18 PM 61.0667 -61.6667 227° Southwest 440 506 36,000  Level Montreal Center
Mon 03:12:18 PM 60.9667 -61.8167 216° Southwest 440 506 36,000  Level Montreal Center
Mon 03:13:18 PM 60.8667 -61.9667 216° Southwest 440 506 36,000  Level Montreal Center
Mon 03:14:18 PM 60.8000 -62.0667 216° Southwest 420 483 36,000  Level Montreal Center
Mon 03:15:18 PM 60.6833 -62.3167 226° Southwest 450 518 36,000  Level Montreal Center
Mon 03:16:18 PM 60.6000 -62.5000 227° Southwest 440 506 36,000  Level Montreal Center
Mon 03:17:18 PM 60.5500 -62.7167 245° Southwest 440 506 36,000  Level Montreal Center
Mon 03:18:18 PM 60.5167 -62.9833 256° West 440 506 36,000  Level Montreal Center
Mon 03:19:18 PM 60.4667 -63.2000 245° Southwest 440 506 36,000  Level Montreal Center
Mon 03:20:18 PM 60.4167 -63.4333 247° West 440 506 36,000  Level Montreal Center
Mon 03:25:26 PM 60.2000 -64.7000 222° Southwest 440 506 36,000  Level Gander Center
Mon 03:26:18 PM 60.1667 -64.8167 240° Southwest 440 506 36,000  Level Montreal Center
Mon 03:27:18 PM 60.1000 -65.0167 236° Southwest 440 506 36,000  Level Montreal Center
Mon 03:28:18 PM 60.0333 -65.2000 234° Southwest 440 506 36,000  Level Montreal Center
Mon 03:29:00 PM 60.1336 -64.8467 248° West  Level FlightAware Approximate
Mon 03:29:18 PM 59.9333 -65.3667 220° Southwest 440 506 36,000  Level Montreal Center
Mon 03:30:00 PM 60.0995 -65.0100 247° West  Level FlightAware Approximate
Mon 03:30:18 PM 59.8500 -65.5333 225° Southwest 440 506 36,000  Level Montreal Center
Mon 03:31:00 PM 60.0640 -65.1714 222° Southwest  Level FlightAware Approximate
Mon 03:31:18 PM 59.7500 -65.7333 225° Southwest 440 506 36,000  Level Montreal Center
Mon 03:32:18 PM 59.6500 -65.9000 220° Southwest 440 506 36,000  Level Montreal Center
Mon 03:33:18 PM 59.5667 -66.0167 215° Southwest 440 506 36,000  Level Montreal Center
Mon 03:34:18 PM 59.4833 -66.1833 225° Southwest 440 506 36,000  Level Montreal Center
Mon 03:35:18 PM 59.3833 -66.3333 217° Southwest 440 506 36,000  Level Montreal Center
Mon 03:36:18 PM 59.2833 -66.5000 220° Southwest 440 506 36,000  Level Montreal Center
Mon 03:37:18 PM 59.1833 -66.6500 218° Southwest 440 506 36,000  Level Montreal Center
Mon 03:38:18 PM 59.1000 -66.8167 226° Southwest 440 506 36,000  Level Montreal Center
Mon 03:39:18 PM 59.0000 -66.9667 218° Southwest 440 506 36,000  Level Montreal Center
Mon 03:40:18 PM 58.9167 -67.1167 223° Southwest 440 506 36,000  Level Montreal Center
Mon 03:41:18 PM 58.8167 -67.2833 221° Southwest 440 506 36,000  Level Montreal Center
Mon 03:42:18 PM 58.7167 -67.4333 218° Southwest 440 506 36,000  Level Montreal Center
Mon 03:43:18 PM 58.6167 -67.5833 218° Southwest 440 506 36,000  Level Montreal Center
Mon 03:44:18 PM 58.5167 -67.7333 218° Southwest 450 518 36,000  Level Montreal Center
Mon 03:45:18 PM 58.4167 -67.8833 218° Southwest 450 518 36,000  Level Montreal Center
Mon 03:46:18 PM 58.3333 -68.0333 223° Southwest 450 518 36,000  Level Montreal Center
Mon 03:47:18 PM 58.2333 -68.1833 218° Southwest 450 518 36,000  Level Montreal Center
Mon 03:48:18 PM 58.1000 -68.4167 223° Southwest 460 529 36,000  Level Montreal Center
Mon 03:49:49 PM 57.9833 -68.5667 214° Southwest 460 529 36,000  Level Montreal Center
Mon 03:50:49 PM 57.9000 -68.6667 213° Southwest 450 518 36,000  Level Montreal Center
Mon 03:57:49 PM 57.1833 -69.6167 215° Southwest 450 518 36,000  Level Montreal Center
Mon 03:58:49 PM 57.0833 -69.7667 219° Southwest 450 518 36,000  Level Montreal Center
Mon 03:59:49 PM 56.9833 -69.9000 216° Southwest 450 518 36,000  Level Montreal Center
Mon 04:00:00 PM 57.2602 -69.5228 216° Southwest  Level FlightAware Approximate
Mon 04:00:49 PM 56.8667 -70.0500 215° Southwest 450 518 36,000  Level Montreal Center
Mon 04:01:00 PM 57.1881 -69.6171 215° Southwest  Level FlightAware Approximate
Mon 04:01:49 PM 56.7667 -70.1500 209° Southwest 450 518 36,000  Level Montreal Center
Mon 04:02:00 PM 57.1160 -69.7111 215° Southwest  Level FlightAware Approximate
Mon 04:02:49 PM 56.6667 -70.3000 220° Southwest 450 518 36,000  Level Montreal Center
Mon 04:03:00 PM 57.0438 -69.8047 215° Southwest  Level FlightAware Approximate
Mon 04:03:49 PM 56.5667 -70.4333 216° Southwest 450 518 36,000  Level Montreal Center
Mon 04:04:49 PM 56.4667 -70.5667 216° Southwest 450 518 36,000  Level Montreal Center
Mon 04:05:49 PM 56.3667 -70.6667 209° Southwest 450 518 36,000  Level Montreal Center
Mon 04:06:49 PM 56.2667 -70.8000 217° Southwest 450 518 36,000  Level Montreal Center
Mon 04:07:49 PM 56.1500 -70.9500 216° Southwest 450 518 36,000  Level Montreal Center
Mon 04:08:49 PM 56.0333 -71.0500 206° Southwest 450 518 36,000  Level Montreal Center
Mon 04:09:49 PM 55.9333 -71.1833 217° Southwest 450 518 36,000  Level Montreal Center
Mon 04:10:49 PM 55.8333 -71.3167 217° Southwest 450 518 36,000  Level Montreal Center
Mon 04:11:49 PM 55.7333 -71.4500 217° Southwest 450 518 36,000  Level Montreal Center
Mon 04:12:49 PM 55.6333 -71.5500 209° Southwest 450 518 36,000  Level Montreal Center
Mon 04:13:49 PM 55.5167 -71.6833 213° Southwest 450 518 36,000  Level Montreal Center
Mon 04:14:49 PM 55.4167 -71.8000 214° Southwest 450 518 36,000  Level Montreal Center
Mon 04:15:49 PM 55.3167 -71.9333 217° Southwest 450 518 36,000  Level Montreal Center
Mon 04:16:49 PM 55.2167 -72.0333 210° Southwest 450 518 36,000  Level Montreal Center
Mon 04:17:49 PM 55.1000 -72.1667 213° Southwest 450 518 36,000  Level Montreal Center
Mon 04:18:49 PM 54.9833 -72.3000 213° Southwest 460 529 36,000  Level Montreal Center
Mon 04:19:49 PM 54.8833 -72.4167 214° Southwest 450 518 36,000  Level Montreal Center
Mon 04:20:49 PM 54.7667 -72.5500 213° Southwest 450 518 36,000  Level Montreal Center
Mon 04:21:49 PM 54.6667 -72.6500 210° Southwest 450 518 36,000  Level Montreal Center
Mon 04:22:49 PM 54.5667 -72.7667 214° Southwest 450 518 36,000  Level Montreal Center
Mon 04:23:49 PM 54.4667 -72.9000 218° Southwest 450 518 36,000  Level Montreal Center
Mon 04:24:49 PM 54.3500 -73.0167 210° Southwest 450 518 36,000  Level Montreal Center
Mon 04:25:49 PM 54.2500 -73.1167 210° Southwest 450 518 36,000  Level Montreal Center
Mon 04:26:49 PM 54.1333 -73.2333 210° Southwest 450 518 36,000  Level Montreal Center
Mon 04:27:49 PM 54.0333 -73.3500 214° Southwest 450 518 36,000  Level Montreal Center
Mon 04:28:49 PM 53.9167 -73.4833 214° Southwest 450 518 36,000  Level Montreal Center
Mon 04:29:49 PM 53.8167 -73.5667 206° Southwest 450 518 36,000  Level Montreal Center
Mon 04:30:49 PM 53.7000 -73.6833 211° Southwest 460 529 36,000  Level Montreal Center
Mon 04:31:49 PM 53.5833 -73.8000 211° Southwest 460 529 36,000  Level Montreal Center
Mon 04:32:49 PM 53.4667 -73.9000 207° Southwest 460 529 36,000  Level Montreal Center
Mon 04:41:05 PM 52.5000 -74.7167 206° Southwest 470 541 36,000  Level Gander Center
Mon 04:41:49 PM 52.4167 -74.7500 194° South 460 529 36,000  Level Montreal Center
Mon 04:42:00 PM 52.7578 -74.4742 206° Southwest  Level FlightAware Approximate
Mon 04:42:49 PM 52.3167 -74.8333 207° Southwest 460 529 36,000  Level Montreal Center
Mon 04:43:00 PM 52.6782 -74.5385 211° Southwest  Level FlightAware Approximate
Mon 04:43:49 PM 52.2000 -74.9167 204° Southwest 450 518 36,000  Level Montreal Center
Mon 04:44:00 PM 52.6026 -74.6141 211° Southwest  Level FlightAware Approximate
Mon 04:44:49 PM 52.0833 -75.0000 204° Southwest 450 518 36,000  Level Montreal Center
Mon 04:45:00 PM 52.5231 -74.6774 206° Southwest  Level FlightAware Approximate
Mon 04:45:49 PM 51.9667 -75.1167 212° Southwest 460 529 36,000  Level Montreal Center
Mon 04:46:00 PM 52.4434 -74.7402 206° Southwest  Level FlightAware Approximate
Mon 04:46:49 PM 51.8500 -75.2000 204° Southwest 460 529 36,000  Level Montreal Center
Mon 04:47:49 PM 51.7333 -75.2833 204° Southwest 460 529 36,000  Level Montreal Center
Mon 04:48:49 PM 51.6167 -75.4000 212° Southwest 460 529 36,000  Level Montreal Center
Mon 04:49:49 PM 51.5000 -75.4833 204° Southwest 460 529 36,000  Level Montreal Center
Mon 04:50:49 PM 51.3833 -75.5667 204° Southwest 450 518 36,000  Level Montreal Center
Mon 04:51:49 PM 51.2667 -75.6500 204° Southwest 450 518 36,000  Level Montreal Center
Mon 04:52:49 PM 51.1500 -75.7167 200° South 450 518 36,000  Level Montreal Center
Mon 04:53:49 PM 51.0500 -75.8000 208° Southwest 450 518 36,000  Level Montreal Center
Mon 04:54:49 PM 50.9333 -75.9167 212° Southwest 460 529 36,000  Level Montreal Center
Mon 04:55:49 PM 50.8167 -76.0000 204° Southwest 460 529 36,000  Level Montreal Center
Mon 04:56:49 PM 50.7000 -76.0667 200° South 460 529 36,000  Level Montreal Center
Mon 04:57:49 PM 50.5833 -76.1500 204° Southwest 460 529 36,000  Level Montreal Center
Mon 04:58:49 PM 50.4667 -76.2333 204° Southwest 460 529 36,000  Level Montreal Center
Mon 04:59:49 PM 50.3500 -76.3333 209° Southwest 460 529 36,000  Level Montreal Center
Mon 05:00:49 PM 50.2333 -76.4167 205° Southwest 460 529 36,000  Level Montreal Center
Mon 05:01:49 PM 50.1000 -76.4833 198° South 460 529 36,000  Level Montreal Center
Mon 05:02:49 PM 50.0000 -76.5667 208° Southwest 460 529 36,000  Level Montreal Center
Mon 05:03:49 PM 49.8833 -76.6500 205° Southwest 460 529 36,000  Level Montreal Center
Mon 05:04:49 PM 49.7667 -76.7500 209° Southwest 460 529 36,000  Level Montreal Center
Mon 05:05:49 PM 49.6500 -76.8167 200° South 460 529 36,000  Level Montreal Center
Mon 05:06:49 PM 49.5333 -76.9000 205° Southwest 440 506 36,000  Level Montreal Center
Mon 05:07:49 PM 49.4167 -76.9667 200° South 470 541 36,000  Level Montreal Center
Mon 05:08:49 PM 49.3000 -77.0667 209° Southwest 460 529 36,000  Level Montreal Center
Mon 05:09:49 PM 49.1833 -77.1500 205° Southwest 450 518 36,000  Level Montreal Center
Mon 05:10:49 PM 49.0667 -77.2167 201° Southwest 470 541 36,000  Level Montreal Center
Mon 05:11:49 PM 48.9500 -77.3000 205° Southwest 460 529 36,000  Level Montreal Center
Mon 05:12:49 PM 48.8167 -77.4000 206° Southwest 460 529 36,000  Level Montreal Center
Mon 05:13:49 PM 48.7000 -77.4667 201° Southwest 460 529 36,000  Level Montreal Center
Mon 05:14:49 PM 48.5833 -77.5333 201° Southwest 460 529 36,000  Level Montreal Center
Mon 05:15:49 PM 48.4833 -77.6167 209° Southwest 460 529 36,000  Level Montreal Center
Mon 05:16:49 PM 48.3500 -77.7167 207° Southwest 460 529 36,000  Level Montreal Center
Mon 05:17:49 PM 48.2500 -77.7833 204° Southwest 460 529 36,000  Level Montreal Center
Mon 05:18:49 PM 48.1167 -77.8500 198° South 460 529 36,000  Level Montreal Center
Mon 05:19:49 PM 48.0167 -77.9333 209° Southwest 460 529 36,000  Level Montreal Center
Mon 05:20:49 PM 47.8833 -78.0000 199° South 450 518 36,000  Level Montreal Center
Mon 05:21:49 PM 47.7667 -78.0667 201° Southwest 450 518 36,000  Level Montreal Center
Mon 05:22:49 PM 47.6500 -78.1333 201° Southwest 450 518 36,000  Level Montreal Center
Mon 05:23:49 PM 47.5333 -78.2000 201° Southwest 450 518 36,000  Level Montreal Center
Mon 05:24:49 PM 47.4167 -78.2667 201° Southwest 450 518 36,000  Level Montreal Center
Mon 05:25:49 PM 47.3000 -78.3500 206° Southwest 450 518 36,000  Level Montreal Center
Mon 05:26:49 PM 47.1833 -78.3833 191° South 450 518 36,000  Level Montreal Center
Mon 05:27:49 PM 47.0667 -78.4500 201° Southwest 450 518 36,000  Level Montreal Center
Mon 05:28:49 PM 46.9333 -78.5167 199° South 460 529 36,000  Level Montreal Center
Mon 05:29:49 PM 46.8167 -78.5833 201° Southwest 460 529 36,000  Level Montreal Center
Mon 05:30:21 PM 46.7667 -78.6167 205° Southwest 460 529 36,000  Level Toronto Center
Mon 05:36:28 PM 46.0365 -79.0281 205° Southwest 463 533 36,000  Level FlightAware ADS-B (CYYZ)
Mon 05:36:51 PM 45.9910 -79.0527 201° Southwest 461 531 36,000  Level FlightAware ADS-B (CYYZ)
Mon 05:37:59 PM 45.8615 -79.1223 201° Southwest 460 529 36,000  Level FlightAware ADS-B (CYYZ)
Mon 05:38:30 PM 45.7962 -79.1573 200° South 459 528 36,000  Level FlightAware ADS-B (CYYZ)
Mon 05:38:59 PM 45.7472 -79.1836 201° Southwest 459 528 36,000  Level FlightAware ADS-B (CYYZ)
Mon 05:39:29 PM 45.6786 -79.2202 200° South 459 528 36,000  Level FlightAware ADS-B (CYYZ)
Mon 05:39:58 PM 45.6204 -79.2513 200° South 458 527 36,000  Level FlightAware ADS-B (CYYZ)
Mon 05:40:29 PM 45.5592 -79.2838 200° South 458 527 36,000  Level FlightAware ADS-B (CYYZ)
Mon 05:40:59 PM 45.5003 -79.3152 200° South 457 526 36,000  Level FlightAware ADS-B (CYYZ)
Mon 05:41:29 PM 45.4474 -79.3432 200° South 459 528 36,000  Level FlightAware ADS-B (CYYZ)
Mon 05:41:59 PM 45.3854 -79.3758 200° South 459 528 36,000  Level FlightAware ADS-B (CYYZ)
Mon 05:42:29 PM 45.3273 -79.4064 200° South 461 531 36,000  Level FlightAware ADS-B (CYYZ)
Mon 05:42:59 PM 45.2607 -79.4415 200° South 460 529 36,000  Level FlightAware ADS-B (CYYZ)
Mon 05:43:29 PM 45.2021 -79.4722 200° South 460 529 36,000  Level FlightAware ADS-B (CYYZ)
Mon 05:43:59 PM 45.1426 -79.5033 200° South 459 528 36,000  Level FlightAware ADS-B (CYYZ)
Mon 05:44:29 PM 45.0833 -79.5342 200° South 458 527 36,000  Level FlightAware ADS-B (CYYZ)
Mon 05:44:41 PM 45.0782 -79.5368 200° South 451 519 36,000  Level FlightAware ADS-B (EPGD / GDN)
Mon 05:44:59 PM 45.0457 -79.5538 200° South 457 526 36,000  Level FlightAware ADS-B (CYYZ)
Mon 05:45:29 PM 44.9769 -79.5895 200° South 456 525 36,000  Level FlightAware ADS-B (CYYZ)
Mon 05:45:58 PM 44.9093 -79.6247 200° South 454 522 36,000  Level FlightAware ADS-B (CYYZ)
Mon 05:46:15 PM 44.9471 -79.6050 20° North 451 519 36,000  Level FlightAware ADS-B (EPLB / LUZ)
Mon 05:46:28 PM 44.8500 -79.6554 200° South 452 520 36,000  Level FlightAware ADS-B (CYYZ)
Mon 05:46:55 PM 44.8192 -79.6713 200° South 443 510 36,000  Level FlightAware ADS-B (EPGD / GDN)
Mon 05:46:57 PM 44.7921 -79.6852 200° South 450 518 36,000  Level FlightAware ADS-B (CYYZ)
Mon 05:47:25 PM 44.7369 -79.7137 200° South 449 517 36,000  Level FlightAware ADS-B (CYYZ)
Mon 05:47:40 PM 44.7676 -79.6980 20° North 450 518 36,000  Level FlightAware ADS-B
Mon 05:48:10 PM 44.6752 -79.7454 200° South 450 518 36,000  Level FlightAware ADS-B (EPGD / GDN)
Mon 05:48:55 PM 44.5697 -79.8063 202° Southwest 434 499 36,000  Level FlightAware ADS-B (EPGD / GDN)
Mon 05:49:50 PM 44.4717 -79.8920 212° Southwest 439 505 36,000  Level FlightAware ADS-B (CYYZ)
Mon 05:49:55 PM 44.4703 -79.8934 214° Southwest 432 497 36,000  Level FlightAware ADS-B (EPGD / GDN)
Mon 05:55:18 PM 43.9206 -80.3843 212° Southwest 436 502 36,000  Level FlightAware ADS-B (CYYZ)
Mon 05:55:40 PM 43.8782 -80.4216 212° Southwest 435 501 36,000  Level FlightAware ADS-B (EPLB / LUZ)
Mon 05:55:50 PM 43.8615 -80.4363 212° Southwest 436 502 36,000  Level FlightAware ADS-B (CYYZ)
Mon 05:56:22 PM 43.8057 -80.4782 208° Southwest 445 512 36,000  Level FlightAware ADS-B (CYYZ)
Mon 05:56:34 PM 43.7824 -80.4922 203° Southwest 445 512 36,000  Level FlightAware ADS-B (EPLB / LUZ)
Mon 05:56:53 PM 43.7501 -80.5118 204° Southwest 440 506 36,000  Level FlightAware ADS-B (CYYZ)
Mon 05:57:12 PM 43.7107 -80.5360 204° Southwest 438 504 36,000  Level FlightAware ADS-B (CZBA)
Mon 05:57:25 PM 43.6878 -80.5499 204° Southwest 437 503 36,000  Level FlightAware ADS-B (CYYZ)
Mon 05:57:46 PM 43.6481 -80.5742 204° Southwest 436 502 36,000  Level FlightAware ADS-B
Mon 05:57:52 PM 43.6411 -80.5785 204° Southwest 436 502 36,000  Level FlightAware ADS-B (CYYZ)
Mon 05:58:22 PM 43.5820 -80.6146 204° Southwest 433 498 36,000  Level FlightAware ADS-B (CYYZ)
Mon 05:58:26 PM 43.5941 -80.6072 24° Northeast 432 497 36,000  Level FlightAware ADS-B (EPLB / LUZ)
Mon 05:58:53 PM 43.5272 -80.6479 204° Southwest 432 497 36,000  Level FlightAware ADS-B (CYYZ)
Mon 05:59:09 PM 43.4977 -80.6659 204° Southwest 431 496 36,000  Level FlightAware ADS-B
Mon 05:59:24 PM 43.4787 -80.6775 204° Southwest 432 497 36,000  Level FlightAware ADS-B (CYYZ)
Mon 05:59:54 PM 43.4150 -80.7163 204° Southwest 432 497 36,000  Level FlightAware ADS-B (CYYZ)
Mon 06:00:09 PM 43.3881 -80.7325 204° Southwest 432 497 36,000  Level FlightAware ADS-B (EPLB / LUZ)
Mon 06:00:24 PM 43.3600 -80.7495 204° Southwest 432 497 36,000  Level FlightAware ADS-B (CYYZ)
Mon 06:00:50 PM 43.3180 -80.7749 204° Southwest 432 497 36,000  Level FlightAware ADS-B (EPLB / LUZ)
Mon 06:00:55 PM 43.3036 -80.7836 204° Southwest 431 496 36,000  Level FlightAware ADS-B (CYYZ)
Mon 06:01:21 PM 43.2593 -80.8102 204° Southwest 429 494 36,000  Level FlightAware ADS-B (EPLB / LUZ)
Mon 06:01:24 PM 43.2512 -80.8151 204° Southwest 430 495 36,000  Level FlightAware ADS-B (CYYZ)
Mon 06:01:54 PM 43.1954 -80.8487 204° Southwest 431 496 36,000  Level FlightAware ADS-B (CYYZ)
Mon 06:02:01 PM 43.1845 -80.8553 204° Southwest 430 495 36,000  Level FlightAware ADS-B (EPLB / LUZ)
Mon 06:02:25 PM 43.1399 -80.8821 204° Southwest 432 497 36,000  Level FlightAware ADS-B (CYYZ)
Mon 06:02:45 PM 43.1031 -80.9044 204° Southwest 431 496 36,000  Level FlightAware ADS-B (EPLB / LUZ)
Mon 06:02:54 PM 43.0863 -80.9144 204° Southwest 432 497 36,000  Level FlightAware ADS-B (CYYZ)
Mon 06:03:25 PM 43.0311 -80.9475 204° Southwest 431 496 36,000  Level FlightAware ADS-B (CYYZ)
Mon 06:03:54 PM 42.9795 -80.9783 204° Southwest 430 495 36,000  Level FlightAware ADS-B (CYYZ)
Mon 06:03:58 PM 42.9706 -80.9836 204° Southwest 429 494 36,000  Level FlightAware ADS-B (EPLB / LUZ)
Mon 06:04:25 PM 42.9221 -81.0126 204° Southwest 430 495 36,000  Level FlightAware ADS-B (CYYZ)
Mon 06:04:36 PM 42.9015 -81.0248 203° Southwest 429 494 36,000  Level FlightAware ADS-B (EPLB / LUZ)
Mon 06:04:55 PM 42.8703 -81.0434 204° Southwest 429 494 36,000  Level FlightAware ADS-B (CYYZ)
Mon 06:05:07 PM 42.8451 -81.0584 204° Southwest 427 491 36,000  Level FlightAware ADS-B (EPLB / LUZ)
Mon 06:05:25 PM 42.8143 -81.0766 203° Southwest 426 490 36,000  Level FlightAware ADS-B (CYYZ)
Mon 06:05:50 PM 42.7686 -81.1038 204° Southwest 425 489 36,000  Level FlightAware ADS-B (EPLB / LUZ)
Mon 06:05:54 PM 42.7625 -81.1074 204° Southwest 425 489 36,000  Level FlightAware ADS-B (CYYZ)
Mon 06:06:24 PM 42.7061 -81.1409 204° Southwest 426 490 36,000  Level FlightAware ADS-B (CYYZ)
Mon 06:06:26 PM 42.7371 -81.1224 24° Northeast 425 489 36,000  Level FlightAware ADS-B (EPLB / LUZ)
Mon 06:06:54 PM 42.6537 -81.1719 204° Southwest 427 491 36,000  Level FlightAware ADS-B (CYYZ)
Mon 06:07:05 PM 42.6503 -81.1739 204° Southwest 426 490 36,000  Level FlightAware ADS-B (EPLB / LUZ)
Mon 06:07:25 PM 42.5970 -81.2053 203° Southwest 428 493 36,000  Level FlightAware ADS-B (CYYZ)
Mon 06:07:38 PM 42.5997 -81.2037 23° Northeast 428 493 36,000  Level FlightAware ADS-B (EPLB / LUZ)
Mon 06:07:55 PM 42.5440 -81.2365 203° Southwest 429 494 36,000  Level FlightAware ADS-B (CYYZ)
Mon 06:08:12 PM 42.5126 -81.2549 203° Southwest 429 494 36,000  Level FlightAware ADS-B (EPLB / LUZ)
Mon 06:08:25 PM 42.4887 -81.2689 203° Southwest 428 493 36,000  Level FlightAware ADS-B (CYYZ)
Mon 06:08:55 PM 42.4338 -81.3011 203° Southwest 427 491 36,000  Level FlightAware ADS-B (CYYZ)
Mon 06:08:56 PM 42.4319 -81.3022 203° Southwest 427 491 36,000  Level FlightAware ADS-B (EPLB / LUZ)
Mon 06:09:25 PM 42.3800 -81.3326 203° Southwest 425 489 36,000  Level FlightAware ADS-B (CYYZ)
Mon 06:09:55 PM 42.3262 -81.3640 203° Southwest 426 490 36,000  Level FlightAware ADS-B (CYYZ)
Mon 06:10:25 PM 42.2793 -81.3914 203° Southwest 427 491 36,000  Level FlightAware ADS-B (CYYZ)
Mon 06:10:55 PM 42.2169 -81.4278 203° Southwest 431 496 36,000  Level FlightAware ADS-B (CYYZ)
Mon 06:11:24 PM 42.1642 -81.4584 203° Southwest 433 498 36,000  Level FlightAware ADS-B (CYYZ)
Mon 06:11:55 PM 42.1071 -81.4916 203° Southwest 432 497 36,000  Level FlightAware ADS-B (CYYZ)
Mon 06:12:25 PM 42.0548 -81.5218 203° Southwest 431 496 36,000  Level FlightAware ADS-B (CYYZ)
Mon 06:12:55 PM 41.9980 -81.5546 203° Southwest 430 495 36,000  Level FlightAware ADS-B (CYYZ)
Mon 06:13:25 PM 41.9442 -81.5857 203° Southwest 428 493 36,000  Level FlightAware ADS-B (CYYZ)
Mon 06:13:54 PM 41.8898 -81.6171 203° Southwest 426 490 36,000  Level FlightAware ADS-B (CYYZ)
Mon 06:14:24 PM 41.8362 -81.6479 203° Southwest 427 491 36,000  Level FlightAware ADS-B (CYYZ)
Mon 06:14:54 PM 41.7806 -81.6797 203° Southwest 426 490 36,000  Level FlightAware ADS-B (CYYZ)
Mon 06:15:25 PM 41.7279 -81.7099 203° Southwest 425 489 36,000  Level FlightAware ADS-B (CYYZ)
Mon 06:15:54 PM 41.6765 -81.7392 203° Southwest 423 487 36,000  Level FlightAware ADS-B (CYYZ)
Mon 06:16:25 PM 41.6195 -81.7716 203° Southwest 422 486 36,000  Level FlightAware ADS-B (CYYZ)
Mon 06:16:53 PM 41.5733 -81.7978 203° Southwest 422 486 36,000  Level FlightAware ADS-B (CYYZ)
Mon 06:17:24 PM 41.5115 -81.8331 203° Southwest 421 484 36,000  Level FlightAware ADS-B (CYYZ)
Mon 06:17:54 PM 41.4776 -81.8523 203° Southwest 421 484 36,000  Level FlightAware ADS-B (CYYZ)
Mon 06:18:25 PM 41.4042 -81.8940 203° Southwest 419 482 36,000  Level FlightAware ADS-B (CYYZ)
Mon 06:18:53 PM 41.3637 -81.9171 203° Southwest 418 481 36,000  Level FlightAware ADS-B (CYYZ)
Mon 06:22:53 PM 40.9164 -82.1269 202° Southwest 447 514 36,000  Level Cleveland Center
Mon 06:23:00 PM 41.0276 -82.1011 202° Southwest  Level FlightAware Approximate
Mon 06:23:31 PM 40.8542 -82.1394 189° South 447 514 36,000  Level Indianapolis Center
Mon 06:24:00 PM 40.9459 -82.1454 202° Southwest  Level FlightAware Approximate
Mon 06:25:00 PM 40.8642 -82.1897 202° Southwest  Level FlightAware Approximate
Mon 06:26:00 PM 40.7824 -82.2339 202° Southwest  Level FlightAware Approximate
Mon 06:27:00 PM 40.7007 -82.2780 202° Southwest  Level FlightAware Approximate
Mon 06:28:00 PM 40.6189 -82.3220 202° Southwest  Level FlightAware Approximate
Mon 06:29:35 PM 40.2605 -82.2591 189° South 441 507 36,000  Level FlightAware ADS-B (EGOD)
Mon 06:30:55 PM 39.9264 -82.2588 180° South 456 525 36,000  Level FlightAware ADS-B
Mon 06:31:36 PM 39.8371 -82.2565 179° South 456 525 36,000  Level FlightAware ADS-B (EGOD)
Mon 06:32:09 PM 39.7602 -82.2545 179° South 460 529 36,000  Level FlightAware ADS-B
Mon 06:32:40 PM 39.7062 -82.2528 179° South 459 528 36,000  Level FlightAware ADS-B
Mon 06:33:17 PM 39.6230 -82.2648 186° South 431 496 36,000  Level FlightAware ADS-B
Mon 06:33:53 PM 39.5521 -82.2838 192° South 432 497 36,000  Level FlightAware ADS-B
Mon 06:34:26 PM 39.4850 -82.3013 191° South 432 497 36,000  Level FlightAware ADS-B
Mon 06:35:04 PM 39.4104 -82.3207 191° South 428 493 36,000  Level FlightAware ADS-B
Mon 06:35:48 PM 39.3269 -82.3422 191° South 421 484 36,000  Level FlightAware ADS-B
Mon 06:36:19 PM 39.2725 -82.3500 186° South 446 513 36,000  Level FlightAware ADS-B
Mon 06:37:03 PM 39.1744 -82.3438 177° South 453 521 36,000  Level FlightAware ADS-B
Mon 06:37:35 PM 39.1056 -82.3389 177° South 455 524 36,000  Level FlightAware ADS-B
Mon 06:38:19 PM 39.0151 -82.3325 177° South 458 527 36,000  Level FlightAware ADS-B
Mon 06:38:49 PM 38.9516 -82.3279 177° South 457 526 36,000  Level FlightAware ADS-B
Mon 06:40:04 PM 38.8003 -82.3153 177° South 454 522 36,000  Level Indianapolis Center
Mon 06:41:06 PM 38.6753 -82.3056 177° South 454 522 36,000  Level Indianapolis Center
Mon 06:42:08 PM 38.5528 -82.2950 176° South 450 518 36,000  Level Indianapolis Center
Mon 06:43:10 PM 38.4278 -82.2847 176° South 448 516 36,000  Level Indianapolis Center
Mon 06:44:12 PM 38.3025 -82.2764 177° South 449 517 36,000  Level Indianapolis Center
Mon 06:45:14 PM 38.1778 -82.2692 177° South 449 517 36,000  Level Indianapolis Center
Mon 06:47:00 PM 37.9705 -82.2714 180° South  Level Estimated
Mon 06:48:20 PM 37.8725 -82.4772 180° South 392 451 36,000  Level Indianapolis Center
Mon 06:49:22 PM 37.7619 -82.5597 211° Southwest 393 452 36,000  Level Indianapolis Center
Mon 06:50:24 PM 37.6692 -82.6264 210° Southwest 388 447 36,000  Level Indianapolis Center
Mon 06:51:26 PM 37.5767 -82.6947 210° Southwest 388 447 36,000  Level Indianapolis Center
Mon 06:52:27 PM 37.4853 -82.7642 211° Southwest 386 444 36,000  Level Indianapolis Center
Mon 06:53:29 PM 37.3917 -82.8314 210° Southwest 386 444 36,000  Level Indianapolis Center
Mon 06:54:31 PM 37.2992 -82.8978 210° Southwest 386 444 36,000  Level Indianapolis Center
Mon 06:55:33 PM 37.1925 -82.9753 210° Southwest 382 440 36,000  Level Indianapolis Center
Mon 06:56:35 PM 37.1019 -83.0414 210° Southwest 382 440 36,000  Level Indianapolis Center
Mon 06:57:37 PM 37.0125 -83.1064 210° Southwest 381 438 36,000  Level Indianapolis Center
Mon 06:58:39 PM 36.9222 -83.1714 210° Southwest 380 437 36,000  Level Indianapolis Center
Mon 06:59:41 PM 36.8169 -83.2478 210° Southwest 380 437 36,000  Level Indianapolis Center
Mon 07:00:43 PM 36.7261 -83.3125 210° Southwest 379 436 36,000  Level Indianapolis Center
Mon 07:01:44 PM 36.6350 -83.3775 210° Southwest 379 436 36,000  Level Indianapolis Center
Mon 07:02:46 PM 36.5447 -83.4414 210° Southwest 378 435 36,000  Level Indianapolis Center
Mon 07:03:48 PM 36.4506 -83.5100 210° Southwest 377 434 36,000  Level Indianapolis Center
Mon 07:04:50 PM 36.3592 -83.5739 209° Southwest 377 434 36,000  Level Indianapolis Center
Mon 07:05:52 PM 36.2681 -83.6386 210° Southwest 377 434 36,000  Level Indianapolis Center
Mon 07:06:53 PM 36.1767 -83.7025 209° Southwest 377 434 36,000  Level Indianapolis Center
Mon 07:07:27 PM 36.1206 -83.7458 212° Southwest 377 434 36,000  Level Atlanta Center
Mon 07:08:27 PM 36.0289 -83.8103 210° Southwest 382 440 36,000  Level Atlanta Center
Mon 07:09:27 PM 35.9372 -83.8719 209° Southwest 382 440 36,000  Level Atlanta Center
Mon 07:10:27 PM 35.8308 -83.9133 198° South 382 440 36,000  Level Atlanta Center
Mon 07:15:50 PM 35.2246 -84.0595 198° South 391 450 36,000 -33 Level FlightAware ADS-B (KDZJ)
Mon 07:16:30 PM 35.1521 -84.0768 191° South 396 456 35,800 -390 Descending FlightAware ADS-B (KDZJ)
Mon 07:17:07 PM 35.0908 -84.0914 191° South 397 457 35,500 -450 Descending FlightAware ADS-B (KDZJ)
Mon 07:17:50 PM 35.0134 -84.1099 191° South 392 451 35,200 -361 Descending FlightAware ADS-B (KDZJ)
Mon 07:18:30 PM 34.9434 -84.1268 191° South 394 453 35,000 -150 Descending FlightAware ADS-B (KDZJ)
Mon 07:19:10 PM 34.8647 -84.1456 191° South 395 455 35,000  Level FlightAware ADS-B (KDZJ)
Mon 07:19:51 PM 34.7931 -84.1626 191° South 391 450 35,000  Level FlightAware ADS-B (KDZJ)
Mon 07:20:30 PM 34.7260 -84.1785 191° South 391 450 35,000  Level FlightAware ADS-B (KDZJ)
Mon 07:21:09 PM 34.6562 -84.1949 191° South 397 457 35,000  Level FlightAware ADS-B (KDZJ)
Mon 07:21:50 PM 34.5796 -84.2131 191° South 397 457 35,000  Level FlightAware ADS-B (KDZJ)
Mon 07:22:30 PM 34.5043 -84.2309 191° South 391 450 35,000  Level FlightAware ADS-B (KDZJ)
Mon 07:23:10 PM 34.4307 -84.2482 191° South 393 452 35,000  Level FlightAware ADS-B (KDZJ)
Mon 07:23:27 PM 34.4056 -84.2528 191° South 397 457 35,000  Level Atlanta Center
Mon 07:23:50 PM 34.3582 -84.2653 191° South 394 453 35,000  Level FlightAware ADS-B (KDZJ)
Mon 07:24:27 PM 34.2950 -84.2803 192° South 404 465 35,000  Level Atlanta Center
Mon 07:24:31 PM 34.2849 -84.2826 191° South 395 455 35,000  Level FlightAware ADS-B (KDZJ)
Mon 07:25:10 PM 34.2120 -84.2996 191° South 394 453 35,000  Level FlightAware ADS-B (KDZJ)
Mon 07:25:27 PM 34.1883 -84.3050 191° South 404 465 35,000  Level Atlanta Center
Mon 07:25:51 PM 34.1388 -84.3167 191° South 395 455 35,000  Level FlightAware ADS-B (KDZJ)
Mon 07:26:27 PM 34.0861 -84.3297 191° South 415 478 35,000  Level Atlanta Center
Mon 07:27:27 PM 33.9775 -84.3569 192° South 408 470 35,000  Level Atlanta Center
Mon 07:28:00 PM 33.9516 -84.3530 191° South  Level FlightAware Approximate
Mon 07:28:27 PM 33.8689 -84.3817 191° South 403 464 35,000  Level Atlanta Center
Mon 07:29:27 PM 33.7561 -84.4086 191° South 403 464 35,000  Level Atlanta Center
Mon 07:30:27 PM 33.6517 -84.4331 191° South 403 464 35,000  Level Atlanta Center
Mon 07:31:27 PM 33.5203 -84.4350 181° South 420 483 35,000  Level Atlanta Center
Mon 07:32:27 PM 33.4011 -84.4344 180° South 425 489 35,000  Level Atlanta Center
Mon 07:33:27 PM 33.2844 -84.4314 179° South 420 483 35,000  Level Atlanta Center
Mon 07:34:27 PM 33.1675 -84.4308 180° South 420 483 35,000  Level Atlanta Center
Mon 07:35:27 PM 33.0506 -84.4278 179° South 420 483 35,000  Level Atlanta Center
Mon 07:36:27 PM 32.9442 -84.4275 180° South 420 483 35,000  Level Atlanta Center
Mon 07:37:27 PM 32.8250 -84.4244 179° South 420 483 35,000  Level Atlanta Center
Mon 07:38:27 PM 32.7083 -84.4189 178° South 420 483 35,000  Level Atlanta Center
Mon 07:39:27 PM 32.5914 -84.4161 179° South 420 483 35,000  Level Atlanta Center
Mon 07:40:27 PM 32.4725 -84.4131 179° South 420 483 35,000  Level Atlanta Center
Mon 07:41:27 PM 32.3575 -84.4125 180° South 420 483 35,000  Level Atlanta Center
Mon 07:42:27 PM 32.2450 -84.4097 179° South 420 483 35,000  Level Atlanta Center
Mon 07:44:18 PM 32.0219 -84.4044 179° South 423 487 35,000  Level Jacksonville Center
Mon 07:45:18 PM 31.9092 -84.4003 178° South 418 481 35,000  Level Jacksonville Center
Mon 07:46:18 PM 31.7964 -84.4008 180° South 413 475 35,000  Level Jacksonville Center
Mon 07:47:18 PM 31.6794 -84.3989 179° South 413 475 35,000  Level Jacksonville Center
Mon 07:53:11 PM 30.9920 -84.1908 179° South 428 493 35,000  Level FlightAware ADS-B (KONZ)
Mon 07:54:12 PM 30.8811 -84.1332 156° South 437 503 35,000  Level FlightAware ADS-B (KONZ)
Mon 07:55:00 PM 30.7926 -84.0867 156° South 434 499 35,000  Level FlightAware ADS-B (KONZ)
Mon 07:55:31 PM 30.7454 -84.0619 156° South 432 497 35,000  Level FlightAware ADS-B (KONZ)
Mon 07:56:02 PM 30.6813 -84.0284 156° South 431 496 35,000  Level FlightAware ADS-B (KONZ)
Mon 07:56:40 PM 30.6091 -83.9907 156° South 432 497 35,000  Level FlightAware ADS-B (KONZ)
Mon 07:57:22 PM 30.5332 -83.9511 156° South 432 497 35,000  Level FlightAware ADS-B (KONZ)
Mon 07:57:52 PM 30.4805 -83.9237 156° South 433 498 35,000  Level FlightAware ADS-B (KONZ)
Mon 07:58:22 PM 30.4270 -83.8959 156° South 434 499 35,000  Level FlightAware ADS-B (KONZ)
Mon 07:59:01 PM 30.3514 -83.8566 156° South 436 502 35,000  Level FlightAware ADS-B (KONZ)
Mon 07:59:32 PM 30.2940 -83.8269 156° South 440 506 35,000  Level FlightAware ADS-B (KONZ)
Mon 08:00:11 PM 30.2218 -83.7895 156° South 441 507 35,000  Level FlightAware ADS-B (KONZ)
Mon 08:00:52 PM 30.1492 -83.7519 156° South 441 507 35,000  Level FlightAware ADS-B (KONZ)
Mon 08:01:30 PM 30.0794 -83.7159 156° South 439 505 35,000  Level FlightAware ADS-B (KONZ)
Mon 08:02:18 PM 30.0031 -83.6792 156° South 437 503 35,000  Level Jacksonville Center
Mon 08:03:18 PM 29.8803 -83.6161 156° South 437 503 35,000  Level Jacksonville Center
Mon 08:04:18 PM 29.7719 -83.5578 155° Southeast 437 503 35,000  Level Jacksonville Center
Mon 08:05:18 PM 29.6617 -83.5044 157° South 437 503 35,000  Level Jacksonville Center
Mon 08:06:18 PM 29.5514 -83.4464 155° Southeast 437 503 35,000  Level Jacksonville Center
Mon 08:07:18 PM 29.4408 -83.3911 156° South 437 503 35,000  Level Jacksonville Center
Mon 08:08:18 PM 29.3283 -83.3356 157° South 437 503 35,000  Level Jacksonville Center
Mon 08:09:18 PM 29.2200 -83.2803 156° South 437 503 35,000  Level Jacksonville Center
Mon 08:10:18 PM 29.1117 -83.2231 155° Southeast 437 503 35,000  Level Jacksonville Center
Mon 08:11:18 PM 28.9969 -83.1656 156° South 442 509 35,000  Level Jacksonville Center
Mon 08:12:18 PM 28.8864 -83.1083 156° South 442 509 35,000  Level Jacksonville Center
Mon 08:17:34 PM 28.2919 -82.8116 156° South 442 509 35,000  Level FlightAware ADS-B
Mon 08:18:10 PM 28.2224 -82.7770 156° South 442 509 35,000  Level FlightAware ADS-B
Mon 08:19:45 PM 28.0455 -82.6896 156° South 441 507 35,000  Level FlightAware ADS-B
Mon 08:20:20 PM 27.9799 -82.6572 156° South 442 509 35,000  Level FlightAware ADS-B
Mon 08:20:59 PM 27.9060 -82.6207 156° South 440 506 35,000  Level FlightAware ADS-B
Mon 08:21:31 PM 27.8470 -82.5916 156° South 439 505 35,000  Level FlightAware ADS-B
Mon 08:22:21 PM 27.7542 -82.5460 157° South 438 504 35,000  Level FlightAware ADS-B
Mon 08:23:07 PM 27.6676 -82.5035 157° South 435 501 35,000  Level FlightAware ADS-B
Mon 08:23:41 PM 27.6055 -82.4731 157° South 433 498 35,000  Level FlightAware ADS-B
Mon 08:24:41 PM 27.5078 -82.4253 157° South 430 495 35,000  Level FlightAware ADS-B
Mon 08:25:49 PM 27.3780 -82.3620 157° South 431 496 35,000  Level FlightAware ADS-B
Mon 08:26:27 PM 27.3014 -82.3248 157° South 430 495 35,000  Level FlightAware ADS-B
Mon 08:28:21 PM 27.0974 -82.2257 157° South 430 495 35,000  Level FlightAware ADS-B
Mon 08:29:11 PM 27.0047 -82.1809 157° South 431 496 35,000  Level FlightAware ADS-B
Mon 08:30:32 PM 26.8539 -82.1080 157° South 430 495 35,000  Level FlightAware ADS-B
Mon 08:31:12 PM 26.7813 -82.0729 157° South 430 495 35,000  Level FlightAware ADS-B
Mon 08:31:43 PM 26.7247 -82.0457 157° South 430 495 35,000  Level FlightAware ADS-B
Mon 08:32:13 PM 26.6700 -82.0194 157° South 430 495 35,000  Level FlightAware ADS-B
Mon 08:32:43 PM 26.6146 -81.9928 157° South 430 495 35,000  Level FlightAware ADS-B
Mon 08:33:13 PM 26.5592 -81.9662 157° South 431 496 35,000  Level FlightAware ADS-B
Mon 08:33:53 PM 26.4870 -81.9316 157° South 432 497 35,000  Level FlightAware ADS-B
Mon 08:34:23 PM 26.4321 -81.9053 157° South 434 499 35,000  Level FlightAware ADS-B
Mon 08:35:03 PM 26.3582 -81.8700 157° South 435 501 35,000  Level FlightAware ADS-B
Mon 08:35:33 PM 26.3004 -81.8424 157° South 438 504 35,000  Level FlightAware ADS-B
Mon 08:36:12 PM 26.2295 -81.8086 157° South 439 505 35,000  Level FlightAware ADS-B
Mon 08:36:43 PM 26.1701 -81.7803 157° South 440 506 35,000  Level FlightAware ADS-B
Mon 08:38:13 PM 26.1167 -81.7550 157° South 426 490 35,000  Level FlightAware ADS-B
Mon 08:38:53 PM 25.9433 -81.7131 157° South 439 505 35,000  Level Miami Center
Mon 08:39:53 PM 25.8419 -81.7528 199° South 391 450 35,000  Level Miami Center
Mon 08:40:53 PM 25.7425 -81.7925 200° South 386 444 35,000 -100 Level Miami Center
Mon 08:41:53 PM 25.6342 -81.8408 202° Southwest 391 450 34,800 -600 Descending Miami Center
Mon 08:42:53 PM 25.5306 -81.8828 200° South 391 450 33,800 -1,000 Descending Miami Center
Mon 08:43:53 PM 25.4311 -81.9244 201° Southwest 391 450 32,800 -1,000 Descending Miami Center
Mon 08:45:00 PM 25.3027 -81.9109 175° South  Level FlightAware Approximate
Mon 08:52:00 PM 24.5015 -82.0663 193° South  Level FlightAware Approximate
Mon 08:53:00 PM 24.3875 -82.0837 191° South  Level FlightAware Approximate
Mon 08:54:00 PM 24.2741 -82.1080 191° South  Level FlightAware Approximate
Mon 08:55:00 PM 24.1607 -82.1323 191° South  Level FlightAware Approximate
Mon 08:56:00 PM 24.0473 -82.1566 191° South  Level FlightAware Approximate
Mon 08:57:00 PM 23.9340 -82.1811 191° South  Level FlightAware Approximate
Mon 08:58:00 PM 23.8207 -82.2057 191° South  Level FlightAware Approximate
Mon 08:59:00 PM 23.7074 -82.2303 191° South  Level FlightAware Approximate
Mon 09:00:00 PM 23.5941 -82.2549 191° South  Level FlightAware Approximate
Mon 09:01:00 PM 23.4808 -82.2796 191° South  Level FlightAware Approximate
Mon 09:02:00 PM 23.3675 -82.3042 191° South  Level FlightAware Approximate
Mon 09:03:00 PM 23.2542 -82.3288 191° South  Level FlightAware Approximate
Mon 09:04:00 PM 23.1412 -82.3546 190° South  Level FlightAware Approximate
Mon 09:05:00 PM 23.0273 -82.3754 189° South  Level FlightAware Approximate
Mon 09:06:00 PM 22.9891 -82.4091 223° Southwest  Level Estimated
Mon 09:07:00 PM 22.9891 -82.4091 223° Southwest  Level Estimated
Mon 09:08:00 PM 22.9891 -82.4091 223° Southwest  Level Estimated
Mon 09:09:00 PM 22.9891 -82.4091 223° Southwest  Level Estimated
Mon 09:10:00 PM 22.9891 -82.4091 223° Southwest  Level Estimated
Mon 09:11:00 PM 22.9891 -82.4091 223° Southwest  Level Estimated
Mon 09:12:00 PM 22.9891 -82.4091 223° Southwest  Level Estimated
Mon 09:13:00 PM 22.9891 -82.4091 223° Southwest  Level Estimated
Mon 09:14:00 PM 22.9891 -82.4091 223° Southwest  Level Estimated
Mon 09:15:00 PM 22.9891 -82.4091 223° Southwest  Level Estimated
Mon 09:16:00 PM 22.9891 -82.4091 223° Southwest  Level Estimated
Mon 09:17:00 PM 22.9891 -82.4091 223° Southwest  Level Estimated
Mon 09:18:00 PM 22.9891 -82.4091 223° Southwest  Level Estimated
Mon 09:19:00 PM 22.9891 -82.4091 223° Southwest  Level Estimated
Mon 09:20:00 PM 22.9891 -82.4091 223° Southwest  Level Estimated
Mon 09:21:00 PM 22.9891 -82.4091 223° Southwest  Level Estimated
Mon 09:22:00 PM 22.9891 -82.4091 223° Southwest  Level Estimated
Mon 09:23:00 PM 22.9891 -82.4091 223° Southwest  Level Estimated
Mon 09:24:00 PM 22.9891 -82.4091 223° Southwest  Level Estimated
Mon 09:25:00 PM 22.9891 -82.4091 223° Southwest  Level Estimated
Mon 09:26:00 PM 22.9891 -82.4091 223° Southwest  Level Estimated
Mon 09:27:00 PM 22.9891 -82.4091 223° Southwest  Level Estimated
Mon 09:28:00 PM 22.9891 -82.4091 223° Southwest  Level Estimated
Mon 09:29:00 PM 22.9891 -82.4091 223° Southwest  Level Estimated

Login

Don't have an account? Register now (free) for customized features, flight alerts, and more!